Aérodrome :
LOGIN :

S'inscrire | Disclaimer

   EN    FR    IT 

 










Légende :    VFR   VFR Marginal   IFR   IFR Intensif   IFR Très Intensif
Visi : 
Plafond : 
>= 8 km
>= 3000ft
5 à 8 km
1000 à 3000 ft
1500m à 5 km
500 à 1000 ft
800 à 1500m
200 à 500 ft
< 800m
< 200 ft
Symboles :   Orages  Brouillard  Fortes neiges  Fortes précipitations  Vent > 20 kt
SIGMETs :   Divers  Orages  Givrage  Turbulence  Onde Orograph.  Cendres Volcan.







- Altitude de l'aérodrome : 28 ft
- Code IATA : SOZ
- Voir les cartes d'approche


LFKS - Solenzara

DERNIER METAR :
  • 170730Z AUTO 30003KT 270V330 CAVOK 17/08 Q1026

METARs EXPIRÉS :
  • 170700Z AUTO 28003KT CAVOK 16/08 Q1026
  • 170630Z AUTO 27005KT CAVOK 14/08 Q1026
  • 170600Z AUTO 27005KT CAVOK 13/08 Q1025
  • 170530Z AUTO 27005KT CAVOK 13/08 Q1025
  • 170500Z AUTO 29006KT CAVOK 14/08 Q1025

TAF AMD TAF LFKS
Valide du 17 à 05h jusqu'au 18 à 03h UTC


170430Z 1705/1803 28005KT 9999 FEW010
BECMG 1709/1711 12010KT CAVOK
BECMG 1718/1720 28005KT
Pas de NOTAMs connus pour ce terrain.



MET'MAP, la Météo Aéronautique d'un coup d'oeil ! - Copyright ORBIFLY Décembre 2007 - Disclaimer

ORBIFLY MET'MAP TEAM :

Programmation & Développement : Alexandra Zaïnal
Conception & Développement : Baudouin d'Aumeries
Co-Programmation & Développement : Marc-Olivier Méhu
Soutien technique & logistique : Manuel Goepfert

Contact : metmap@orbifly.com




SOURCES & CREDITS :

   NOAA